Aeroporto :
LOGIN :

Iscrizione | Disclaimer

   EN    FR    IT 

 










Sommario :    VFR   VFR Marginale   IFR   IFR Intensivo   IFR Molto Intensivo
Visibilità : 
Base nubi : 
>= 8 km
>= 3000ft
5 / 8 km
1000 / 3000 ft
1500m / 5 km
500 / 1000 ft
800 / 1500m
200 / 500 ft
< 800m
< 200 ft
Simboli :   Temporali  Nebbia  Neve Forte  Precipitazioni Forti  Vento > 20 kt
SIGMETs :   Varie  Temporali  Ghiacco  Turbolenza  Onda orograficha  Ceneri Vulcaniche






- Altitudine del aeroporto : 154 ft
- Codice IATA : PKV


ULOO - Pskov

ULTIMO METAR :
  • 070930Z 20008MPS CAVOK 17/M05 Q1025 R19/090065 NOSIG RMK QFE765

METARs OBSOLETI :
  • 070900Z 20007MPS CAVOK 16/M05 Q1026 R19/090065 NOSIG RMK QFE765
  • 070830Z 20007MPS CAVOK 16/M05 Q1026 R19/090065 NOSIG RMK QFE765
  • 070800Z 19005MPS 160V220 CAVOK 15/M04 Q1027 R19/090065 NOSIG RMK QFE766
  • 070730Z 19005MPS 150V230 CAVOK 13/M03 Q1027 R19/090065 NOSIG RMK QFE766
  • 070700Z 19004MPS CAVOK 11/M02 Q1028 R19/090065 NOSIG RMK QFE766

TAF TAF ULOO
Valido dal 07 a 09 ore il 07 a 18 ore UTC


070757Z 0709/0718 18004G09MPS 9999 SCT020
TEMPO 0709/0716 21008G14MPS
TEMPO 0716/0718 24006MPS 4000 -SHRA BKN020CB



MetMap, La meteo Aeronautica in un colpo d'occhio ! - Copyright ORBIFLY Dicembre 2007 - Disclaimer

ORBIFLY MET'MAP TEAM :

Programmazione e sviluppo : Alexandra Zaïnal
Concezione : Baudouin d'Aumeries
Aiuto per la programmazione : Marc-Olivier Méhu
Supporto tecnico e logistico : Manuel Goepfert
Aiuto per la traduzione : Arnaldo La Scala

Contatto : metmap@orbifly.com




FONTI E CREDITI :

   NOAA